Startpagina
METAR-TAF:

METAR-TAF

Vliegvelden :

Flughafen Düsseldorf

Düsseldorf, Duitsland

breedte: 51-18N, lengte: 006-46E, hoogte: 45 m

Actueel weer

Dit bericht is 10 minuten geleden gemaakt, om 08:50 UTC
Wind 2 kt uit het noordoosten
Temperatuur -1°C
Vochtigheid 93%
Druk 1010 hPa
Zicht 10 km of meer
geen wolken onder 1500 m en geen cumulonimbus

METAR: EDDL 210850Z 05002KT CAVOK M01/M02 Q1010 NOSIG

Tijdstip: 10:00 (09:00 UTC)

Verwachting

Dit bericht is 2 uur en het 11 minuten geleden gemaakt, om 06:49 UTC
Verwachting geldig van 21 om 06 UTC tot 22 om 12 UTC
Wind 4 kt uit het oostnoordoosten
Zicht: 9000 m
Tijdelijke
van 21 om 06 UTC tot 21 om 09 UTC
Zicht: 3500 m
nevel
Wijzigt naar
van 21 om 07 UTC tot 21 om 10 UTC
Wind 8 kt uit het zuidoosten
Wijzigt naar
van 22 om 05 UTC tot 22 om 08 UTC
Wind 13 kt uit het zuidzuidoosten

TAF: EDDL 210649Z 2106/2212 07004KT 9000 NSC TEMPO 2106/2109 3500 BR BECMG 2107/2110 14008KT BECMG 2205/2208 15013KT

Waarnemingen en weersverwachtingen van meer dan 4000 vliegvelden (METAR en TAF).

De beschikbare stations zijn de gele en rode punten op de kaart.

Ga met uw muis naar het station om de naam te zien.

Klik dan om waarnemingen en weersverwachtingen te zien.

kaart wijzigen: klik op de groene knoppen met een zwart kruis om in te zoomen, op de groene knop met een streepje om uit te zoomen of op de groene pijlen voor aangrenzende kaarten.


METAR-TAF: